createdAt,value
2023-04-06T00:00:37.565Z,4.68
2023-04-06T00:03:04.775Z,4.57
2023-04-06T00:05:32.133Z,4.57
2023-04-06T00:07:59.454Z,4.55
2023-04-06T00:10:27.476Z,4.49
2023-04-06T00:12:57.779Z,4.46
2023-04-06T00:15:24.972Z,4.46
2023-04-06T00:17:52.405Z,4.40
2023-04-06T00:20:19.696Z,4.37
2023-04-06T00:22:46.748Z,4.35
2023-04-06T00:25:13.895Z,4.39
2023-04-06T00:27:40.954Z,4.38
2023-04-06T00:30:08.607Z,4.32
2023-04-06T00:32:37.042Z,4.32
2023-04-06T00:35:05.317Z,4.30
2023-04-06T00:37:32.696Z,4.29
2023-04-06T00:39:59.734Z,4.25
2023-04-06T00:42:27.128Z,4.23
2023-04-06T00:44:59.294Z,4.14
2023-04-06T00:47:26.973Z,4.14
2023-04-06T00:49:55.806Z,4.07
2023-04-06T00:52:23.271Z,4.11
2023-04-06T00:54:51.651Z,4.08
2023-04-06T00:57:19.211Z,4.06
2023-04-06T00:59:46.796Z,4.02
2023-04-06T01:02:14.098Z,3.94
2023-04-06T01:04:41.311Z,3.90
2023-04-06T01:07:08.359Z,3.84
2023-04-06T01:09:35.648Z,3.74
2023-04-06T01:12:03.132Z,3.73
2023-04-06T01:14:30.439Z,3.73
2023-04-06T01:17:00.281Z,3.81
2023-04-06T01:19:27.954Z,3.82
2023-04-06T01:21:55.286Z,3.81
2023-04-06T01:24:23.010Z,3.82
2023-04-06T01:26:50.109Z,3.83
2023-04-06T01:29:17.209Z,3.80
2023-04-06T01:31:44.465Z,3.79
2023-04-06T01:34:11.691Z,3.76
2023-04-06T01:36:38.797Z,3.84
2023-04-06T01:39:06.283Z,3.84
2023-04-06T01:41:33.555Z,3.83
2023-04-06T01:44:00.876Z,3.80
2023-04-06T01:46:28.006Z,3.82
2023-04-06T01:48:55.096Z,3.80
2023-04-06T01:51:22.233Z,3.79
2023-04-06T01:53:50.316Z,3.79
2023-04-06T01:56:17.561Z,3.78
2023-04-06T01:58:44.596Z,3.79
2023-04-06T02:01:11.815Z,3.78
2023-04-06T02:03:38.877Z,3.76
2023-04-06T02:06:06.304Z,3.68
2023-04-06T02:08:33.393Z,3.79
2023-04-06T02:11:00.612Z,3.78
2023-04-06T02:13:28.049Z,3.79
2023-04-06T02:15:55.194Z,3.74
2023-04-06T02:18:22.325Z,3.78
2023-04-06T02:20:49.429Z,3.84
2023-04-06T02:23:16.531Z,3.76
2023-04-06T02:25:43.552Z,3.84
2023-04-06T02:28:10.660Z,3.88
2023-04-06T02:30:37.717Z,3.83
2023-04-06T02:33:04.857Z,3.89
2023-04-06T02:35:32.950Z,3.87
2023-04-06T02:38:00.257Z,3.92
2023-04-06T02:40:27.302Z,3.95
2023-04-06T02:42:54.432Z,3.84
2023-04-06T02:45:21.524Z,3.95
2023-04-06T02:47:48.644Z,3.99
2023-04-06T02:50:16.049Z,3.97
2023-04-06T02:52:43.310Z,4.04
2023-04-06T02:55:10.409Z,4.05
2023-04-06T02:57:37.464Z,4.04
2023-04-06T03:00:05.043Z,4.08
2023-04-06T03:02:32.158Z,4.09
2023-04-06T03:04:59.735Z,4.15
2023-04-06T03:07:26.814Z,4.15
2023-04-06T03:09:53.848Z,4.12
2023-04-06T03:12:21.470Z,4.15
2023-04-06T03:14:48.528Z,4.07
2023-04-06T03:17:15.764Z,4.08
2023-04-06T03:19:42.764Z,4.07
2023-04-06T03:22:09.776Z,4.12
2023-04-06T03:24:36.874Z,4.11
2023-04-06T03:27:03.947Z,4.15
2023-04-06T03:29:31.028Z,4.16
2023-04-06T03:31:58.104Z,4.14
2023-04-06T03:34:25.373Z,4.16
2023-04-06T03:37:03.214Z,4.16
2023-04-06T03:39:37.174Z,4.15
2023-04-06T03:42:04.421Z,4.18
2023-04-06T03:44:31.494Z,4.16
2023-04-06T03:46:59.154Z,4.17
2023-04-06T03:49:26.366Z,4.20
2023-04-06T03:51:53.859Z,4.15
2023-04-06T03:54:20.861Z,4.18
2023-04-06T03:56:47.873Z,4.16
2023-04-06T03:59:15.078Z,4.16
2023-04-06T04:01:42.543Z,4.15
2023-04-06T04:04:09.639Z,4.03
2023-04-06T04:06:37.477Z,4.08
2023-04-06T04:09:04.651Z,4.12
2023-04-06T04:11:31.824Z,4.11
2023-04-06T04:13:59.619Z,4.09
2023-04-06T04:16:26.784Z,4.07
2023-04-06T04:18:53.950Z,4.06
2023-04-06T04:21:21.108Z,3.96
2023-04-06T04:23:48.157Z,4.02
2023-04-06T04:26:15.566Z,3.90
2023-04-06T04:28:42.948Z,3.99
2023-04-06T04:31:10.343Z,3.96
2023-04-06T04:33:37.466Z,3.91
2023-04-06T04:36:04.875Z,3.97
2023-04-06T04:38:32.183Z,3.98
2023-04-06T04:40:59.435Z,3.93
2023-04-06T04:43:26.515Z,3.91
2023-04-06T04:45:53.763Z,3.95
2023-04-06T04:48:20.929Z,3.95
2023-04-06T04:50:48.000Z,3.98
2023-04-06T04:53:15.558Z,3.99
2023-04-06T04:55:42.748Z,3.95
2023-04-06T04:58:12.025Z,3.96
2023-04-06T05:00:39.164Z,4.01
2023-04-06T05:03:07.134Z,3.97
2023-04-06T05:05:34.352Z,3.94
2023-04-06T05:08:01.510Z,3.98
2023-04-06T05:10:28.698Z,4.02
2023-04-06T05:12:55.961Z,4.04
2023-04-06T05:15:23.504Z,4.05
2023-04-06T05:17:52.418Z,4.09
2023-04-06T05:20:19.567Z,4.08
2023-04-06T05:22:46.698Z,4.15
2023-04-06T05:25:14.516Z,4.18
2023-04-06T05:27:42.034Z,4.18
2023-04-06T05:30:09.337Z,4.24
2023-04-06T05:32:36.640Z,4.30
2023-04-06T05:35:04.038Z,4.34
2023-04-06T05:37:31.153Z,4.35
2023-04-06T05:39:58.230Z,4.34
2023-04-06T05:42:25.608Z,4.41
2023-04-06T05:44:52.713Z,4.48
2023-04-06T05:47:19.849Z,4.67
2023-04-06T05:49:46.962Z,4.82
2023-04-06T05:52:14.133Z,4.86
2023-04-06T05:54:41.215Z,4.88
2023-04-06T05:57:08.328Z,4.97
2023-04-06T05:59:35.699Z,5.06
2023-04-06T06:02:04.033Z,5.09
2023-04-06T06:04:34.278Z,5.12
2023-04-06T06:07:01.562Z,5.20
2023-04-06T06:09:28.716Z,5.22
2023-04-06T06:11:56.214Z,5.28
2023-04-06T06:14:23.819Z,5.27
2023-04-06T06:16:53.897Z,5.34
2023-04-06T06:19:21.960Z,5.37
2023-04-06T06:21:49.147Z,5.39
2023-04-06T06:24:16.336Z,5.56
2023-04-06T06:26:44.175Z,5.59
2023-04-06T06:29:11.575Z,5.72
2023-04-06T06:31:38.683Z,5.75
2023-04-06T06:34:06.493Z,5.70
2023-04-06T06:36:33.957Z,5.75
2023-04-06T06:39:04.077Z,5.82
2023-04-06T06:41:31.444Z,5.87
2023-04-06T06:43:58.773Z,5.85
2023-04-06T06:46:26.151Z,5.99
2023-04-06T06:48:53.409Z,6.04
2023-04-06T06:51:20.493Z,6.13
2023-04-06T06:53:47.599Z,6.25
2023-04-06T06:56:14.855Z,6.32
2023-04-06T06:58:42.142Z,6.38
2023-04-06T07:01:09.326Z,6.51
2023-04-06T07:03:36.531Z,6.59
2023-04-06T07:06:04.141Z,6.72
2023-04-06T07:08:31.225Z,6.88
2023-04-06T07:10:58.884Z,6.95
2023-04-06T07:13:28.350Z,7.00
2023-04-06T07:15:55.628Z,7.00
2023-04-06T07:18:23.558Z,6.89
2023-04-06T07:20:50.979Z,6.91
2023-04-06T07:23:18.124Z,6.90
2023-04-06T07:25:45.746Z,6.92
2023-04-06T07:28:12.864Z,6.84
2023-04-06T07:30:39.993Z,6.88
2023-04-06T07:33:07.183Z,6.87
2023-04-06T07:35:35.455Z,6.85
2023-04-06T07:38:03.667Z,6.90
2023-04-06T07:40:33.105Z,6.87
2023-04-06T07:43:00.162Z,6.86
2023-04-06T07:45:27.466Z,6.91
2023-04-06T07:47:54.616Z,6.87
2023-04-06T07:50:22.046Z,7.01
2023-04-06T07:52:49.172Z,7.03
2023-04-06T07:55:16.343Z,7.07
2023-04-06T07:57:43.459Z,7.12
2023-04-06T08:00:11.474Z,7.20
2023-04-06T08:02:38.775Z,7.25
2023-04-06T08:05:06.915Z,7.30
2023-04-06T08:07:34.098Z,7.38
2023-04-06T08:10:01.139Z,7.50
2023-04-06T08:12:28.216Z,7.60
2023-04-06T08:14:55.399Z,7.64
2023-04-06T08:17:23.153Z,7.73
2023-04-06T08:19:50.443Z,7.78
2023-04-06T08:22:17.517Z,7.87
2023-04-06T08:24:44.664Z,7.91
2023-04-06T08:27:11.809Z,7.93
2023-04-06T08:29:38.897Z,7.99
2023-04-06T08:32:07.186Z,7.99
2023-04-06T08:34:34.822Z,8.11
2023-04-06T08:37:02.676Z,8.12
2023-04-06T08:39:32.083Z,8.06
2023-04-06T08:42:00.897Z,8.13
2023-04-06T08:44:28.433Z,8.18
2023-04-06T08:46:56.634Z,8.18
2023-04-06T08:49:24.170Z,8.22
2023-04-06T08:51:51.964Z,8.28
2023-04-06T08:54:19.177Z,8.21
2023-04-06T08:56:46.954Z,8.36
2023-04-06T08:59:14.212Z,8.41
2023-04-06T09:01:43.716Z,8.48
2023-04-06T09:04:13.072Z,8.58
2023-04-06T09:06:41.664Z,8.57
2023-04-06T09:09:09.560Z,8.77
2023-04-06T09:11:51.508Z,8.83
2023-04-06T09:14:35.000Z,8.89
2023-04-06T09:17:04.234Z,8.86
2023-04-06T09:19:31.789Z,8.98
2023-04-06T09:22:08.363Z,9.11
2023-04-06T09:24:48.684Z,9.24
2023-04-06T09:27:16.430Z,9.31
2023-04-06T09:29:44.622Z,9.38
2023-04-06T09:32:12.818Z,9.38
2023-04-06T09:34:40.245Z,9.43
2023-04-06T09:37:17.654Z,9.38
2023-04-06T09:39:46.280Z,9.36
2023-04-06T09:42:33.978Z,9.42
2023-04-06T09:45:01.833Z,9.37
2023-04-06T09:47:31.909Z,9.55
2023-04-06T09:50:00.942Z,9.63
2023-04-06T09:52:33.825Z,9.66
2023-04-06T09:55:05.196Z,9.70
2023-04-06T09:57:50.943Z,9.77
2023-04-06T10:00:23.373Z,9.79
2023-04-06T10:03:07.817Z,9.84
2023-04-06T10:06:03.974Z,10.01
2023-04-06T10:08:33.599Z,9.95
2023-04-06T10:11:02.268Z,10.07
2023-04-06T10:13:29.862Z,10.06
2023-04-06T10:15:58.327Z,10.04
2023-04-06T10:18:26.042Z,10.29
2023-04-06T10:20:57.231Z,10.29
2023-04-06T10:23:42.369Z,10.31
2023-04-06T10:26:15.625Z,10.23
2023-04-06T10:28:44.170Z,10.32
2023-04-06T10:31:11.550Z,10.44
2023-04-06T10:33:38.917Z,10.43
2023-04-06T10:36:16.623Z,10.35
2023-04-06T10:38:43.748Z,10.24
2023-04-06T10:41:12.661Z,10.12
2023-04-06T10:43:41.941Z,10.09
2023-04-06T10:46:10.538Z,10.11
2023-04-06T10:48:41.672Z,9.85
2023-04-06T10:51:16.588Z,9.73
2023-04-06T10:53:48.506Z,9.50
2023-04-06T10:56:17.289Z,9.40
2023-04-06T10:58:57.293Z,9.34
2023-04-06T11:01:27.709Z,9.31
2023-04-06T11:04:00.514Z,9.22
2023-04-06T11:06:30.326Z,9.18
2023-04-06T11:09:06.674Z,9.14
2023-04-06T11:11:33.900Z,9.15
2023-04-06T11:14:02.309Z,9.19
2023-04-06T11:16:32.262Z,9.21
2023-04-06T11:19:05.060Z,9.12
2023-04-06T11:21:40.967Z,8.98
2023-04-06T11:24:12.475Z,8.92
2023-04-06T11:27:20.366Z,8.85
2023-04-06T11:29:39.067Z,8.79
2023-04-06T11:32:07.366Z,8.83
2023-04-06T11:34:37.948Z,8.82
2023-04-06T11:37:09.196Z,8.89
2023-04-06T11:39:49.201Z,8.99
2023-04-06T11:42:23.465Z,9.10
2023-04-06T11:44:53.697Z,9.19
2023-04-06T11:47:21.765Z,9.15
2023-04-06T11:49:49.084Z,9.07
2023-04-06T11:52:20.426Z,9.04
2023-04-06T11:54:49.298Z,9.10
2023-04-06T11:57:17.702Z,9.05
2023-04-06T11:59:45.301Z,9.00
2023-04-06T12:02:12.504Z,9.08
2023-04-06T12:04:40.048Z,9.09
2023-04-06T12:07:07.333Z,9.11
2023-04-06T12:09:37.012Z,9.13
2023-04-06T12:12:04.925Z,9.13
2023-04-06T12:14:32.055Z,9.17
2023-04-06T12:16:59.605Z,9.27
2023-04-06T12:19:27.019Z,9.43
2023-04-06T12:21:58.544Z,9.52
2023-04-06T12:24:25.898Z,9.47
2023-04-06T12:27:02.659Z,9.37
2023-04-06T12:29:30.394Z,9.35
2023-04-06T12:31:57.627Z,9.33
2023-04-06T12:34:24.749Z,9.39
2023-04-06T12:36:52.112Z,9.25
2023-04-06T12:39:21.291Z,9.15
2023-04-06T12:41:48.960Z,9.10
2023-04-06T12:44:16.380Z,8.96
2023-04-06T12:46:44.447Z,8.95
2023-04-06T12:49:12.210Z,8.88
2023-04-06T12:51:39.382Z,8.96
2023-04-06T12:54:07.022Z,8.93
2023-04-06T12:56:34.071Z,8.93
2023-04-06T12:59:01.385Z,8.79
2023-04-06T13:01:29.044Z,8.71
2023-04-06T13:03:57.447Z,8.69
2023-04-06T13:06:28.336Z,8.67
2023-04-06T13:08:56.289Z,8.66
2023-04-06T13:11:26.935Z,8.64
2023-04-06T13:13:54.345Z,8.82
2023-04-06T13:16:22.143Z,8.86
2023-04-06T13:18:49.342Z,8.85
2023-04-06T13:21:17.632Z,8.83
2023-04-06T13:23:45.120Z,8.85
2023-04-06T13:26:14.293Z,8.86
2023-04-06T13:28:42.271Z,8.83
2023-04-06T13:31:10.778Z,8.79
2023-04-06T13:33:38.149Z,8.72
2023-04-06T13:36:07.472Z,8.68
2023-04-06T13:38:34.935Z,8.68
2023-04-06T13:41:02.544Z,8.64
2023-04-06T13:43:29.638Z,8.61
2023-04-06T13:45:57.103Z,8.59
2023-04-06T13:49:00.805Z,8.57
2023-04-06T13:51:28.006Z,8.54
2023-04-06T13:53:56.029Z,8.53
2023-04-06T13:56:23.659Z,8.48
2023-04-06T13:58:50.902Z,8.48
2023-04-06T14:01:18.289Z,8.45
2023-04-06T14:03:48.477Z,8.45
2023-04-06T14:06:29.825Z,8.45
2023-04-06T14:08:59.305Z,8.44
2023-04-06T14:11:27.235Z,8.46
2023-04-06T14:13:56.494Z,8.37
2023-04-06T14:16:25.556Z,8.39
2023-04-06T14:18:53.319Z,8.36
2023-04-06T14:21:20.958Z,8.34
2023-04-06T14:23:48.193Z,8.35
2023-04-06T14:26:16.161Z,8.36
2023-04-06T14:28:43.534Z,8.35
2023-04-06T14:31:13.139Z,8.34
2023-04-06T14:33:40.956Z,8.28
2023-04-06T14:36:09.036Z,8.32
2023-04-06T14:38:36.659Z,8.29
2023-04-06T14:41:03.882Z,8.27
2023-04-06T14:43:31.117Z,8.26
2023-04-06T14:46:02.710Z,8.27
2023-04-06T14:48:29.905Z,8.15
2023-04-06T14:50:57.555Z,8.22
2023-04-06T14:53:25.560Z,8.24
2023-04-06T14:55:53.704Z,8.19
2023-04-06T14:58:22.117Z,8.23
2023-04-06T15:00:49.699Z,8.24
2023-04-06T15:03:17.207Z,8.16
2023-04-06T15:05:44.850Z,8.18
2023-04-06T15:08:12.634Z,8.17
2023-04-06T15:10:39.768Z,8.19
2023-04-06T15:13:06.941Z,8.18
2023-04-06T15:15:34.084Z,8.12
2023-04-06T15:18:03.633Z,8.13
2023-04-06T15:20:31.948Z,8.17
2023-04-06T15:22:59.125Z,8.17
2023-04-06T15:25:26.263Z,8.24
2023-04-06T15:27:54.605Z,8.30
2023-04-06T15:30:22.201Z,8.26
2023-04-06T15:33:02.119Z,8.31
2023-04-06T15:35:29.796Z,8.20
2023-04-06T15:37:57.990Z,8.27
2023-04-06T15:40:25.464Z,8.27
2023-04-06T15:42:52.802Z,8.30
2023-04-06T15:45:19.975Z,8.33
2023-04-06T15:47:47.053Z,8.35
2023-04-06T15:50:14.408Z,8.35
2023-04-06T15:52:41.640Z,8.32
2023-04-06T15:55:09.190Z,8.30
2023-04-06T15:57:36.478Z,8.26
2023-04-06T16:00:07.431Z,8.24
2023-04-06T16:02:35.192Z,8.29
2023-04-06T16:05:04.059Z,8.19
2023-04-06T16:07:33.753Z,8.00
2023-04-06T16:10:01.429Z,7.97
2023-04-06T16:12:29.106Z,7.86
2023-04-06T16:14:56.460Z,7.83
2023-04-06T16:17:25.910Z,7.76
2023-04-06T16:19:56.212Z,7.69
2023-04-06T16:22:24.580Z,7.61
2023-04-06T16:24:51.668Z,7.65
2023-04-06T16:27:18.733Z,7.68
2023-04-06T16:29:46.370Z,7.59
2023-04-06T16:32:13.501Z,7.57
2023-04-06T16:34:40.566Z,7.55
2023-04-06T16:37:07.742Z,7.58
2023-04-06T16:39:35.380Z,7.59
2023-04-06T16:42:24.662Z,7.58
2023-04-06T16:44:52.515Z,7.57
2023-04-06T16:47:19.582Z,7.63
2023-04-06T16:49:46.674Z,7.59
2023-04-06T16:52:13.760Z,7.76
2023-04-06T16:54:41.093Z,7.91
2023-04-06T16:57:08.243Z,7.98
2023-04-06T16:59:36.175Z,8.00
2023-04-06T17:02:03.925Z,8.04
2023-04-06T17:04:31.090Z,8.11
2023-04-06T17:06:58.278Z,8.05
2023-04-06T17:09:25.516Z,8.10
2023-04-06T17:11:52.614Z,8.15
2023-04-06T17:14:19.644Z,8.19
2023-04-06T17:16:46.960Z,8.24
2023-04-06T17:19:14.183Z,8.26
2023-04-06T17:21:44.394Z,8.26
2023-04-06T17:24:12.002Z,8.21
2023-04-06T17:26:40.454Z,8.26
2023-04-06T17:29:07.671Z,8.23
2023-04-06T17:31:35.241Z,8.20
2023-04-06T17:34:03.000Z,8.06
2023-04-06T17:36:30.253Z,7.95
2023-04-06T17:38:57.339Z,7.86
2023-04-06T17:41:24.428Z,7.92
2023-04-06T17:43:52.012Z,7.85
2023-04-06T17:46:21.341Z,7.81
2023-04-06T17:48:48.831Z,7.90
2023-04-06T17:51:18.879Z,7.89
2023-04-06T17:53:46.652Z,7.86
2023-04-06T17:56:13.738Z,7.85
2023-04-06T17:58:41.122Z,7.82
2023-04-06T18:01:11.159Z,7.89
2023-04-06T18:03:38.759Z,7.88
2023-04-06T18:06:16.132Z,7.83
2023-04-06T18:08:43.503Z,7.84
2023-04-06T18:11:18.553Z,7.76
2023-04-06T18:13:45.616Z,7.84
2023-04-06T18:16:12.781Z,7.88
2023-04-06T18:18:40.066Z,7.86
2023-04-06T18:21:07.589Z,7.83
2023-04-06T18:23:36.379Z,7.83
2023-04-06T18:26:05.192Z,7.83
2023-04-06T18:28:33.113Z,7.78
2023-04-06T18:31:00.619Z,7.79
2023-04-06T18:33:27.780Z,7.76
2023-04-06T18:35:56.675Z,7.82
2023-04-06T18:38:24.009Z,7.78
2023-04-06T18:40:52.919Z,7.84
2023-04-06T18:43:20.112Z,7.88
2023-04-06T18:45:47.672Z,7.87
2023-04-06T18:48:14.764Z,7.86
2023-04-06T18:50:52.392Z,7.84
2023-04-06T18:53:19.477Z,7.85
2023-04-06T18:55:46.790Z,7.85
2023-04-06T18:58:13.881Z,7.87
2023-04-06T19:00:41.893Z,7.87
2023-04-06T19:03:09.231Z,7.86
2023-04-06T19:05:36.588Z,7.91
2023-04-06T19:08:05.216Z,7.91
2023-04-06T19:10:34.295Z,8.00
2023-04-06T19:13:01.420Z,7.96
2023-04-06T19:15:28.487Z,7.95
2023-04-06T19:17:55.675Z,7.99
2023-04-06T19:20:22.894Z,7.96
2023-04-06T19:22:50.765Z,7.99
2023-04-06T19:25:18.661Z,7.93
2023-04-06T19:27:45.948Z,7.97
2023-04-06T19:30:13.055Z,7.99
2023-04-06T19:32:41.212Z,7.98
2023-04-06T19:35:08.824Z,8.01
2023-04-06T19:37:37.804Z,8.00
2023-04-06T19:40:10.755Z,8.02
2023-04-06T19:42:38.752Z,7.98
2023-04-06T19:45:06.757Z,7.99
2023-04-06T19:47:35.511Z,7.99
2023-04-06T19:50:04.607Z,8.00
2023-04-06T19:52:32.901Z,7.91
2023-04-06T19:55:00.374Z,8.02
2023-04-06T19:57:27.967Z,8.02
2023-04-06T19:59:58.240Z,8.08
2023-04-06T20:02:25.545Z,8.15
2023-04-06T20:04:53.031Z,8.13
2023-04-06T20:07:20.143Z,8.11
2023-04-06T20:09:47.200Z,8.18
2023-04-06T20:12:14.282Z,8.22
2023-04-06T20:14:41.361Z,8.13
2023-04-06T20:17:08.598Z,8.11
2023-04-06T20:19:36.349Z,8.19
2023-04-06T20:22:06.571Z,8.19
2023-04-06T20:24:33.660Z,8.13
2023-04-06T20:27:01.512Z,8.14
2023-04-06T20:29:29.458Z,8.19
2023-04-06T20:31:58.230Z,8.22
2023-04-06T20:34:28.771Z,8.30
2023-04-06T20:36:56.599Z,8.26
2023-04-06T20:39:24.241Z,8.29
2023-04-06T20:41:52.908Z,8.23
2023-04-06T20:44:21.345Z,8.30
2023-04-06T20:46:49.114Z,8.24
2023-04-06T20:49:16.938Z,8.33
2023-04-06T20:51:45.505Z,8.32
2023-04-06T20:54:12.582Z,8.24
2023-04-06T20:56:39.696Z,8.32
2023-04-06T20:59:06.814Z,8.34
2023-04-06T21:01:34.004Z,8.34
2023-04-06T21:04:04.158Z,8.38
2023-04-06T21:06:32.434Z,8.46
2023-04-06T21:09:00.844Z,8.50
2023-04-06T21:11:27.899Z,8.44
2023-04-06T21:13:54.931Z,8.38
2023-04-06T21:16:22.276Z,8.35
2023-04-06T21:18:49.448Z,8.34
2023-04-06T21:21:16.608Z,8.37
2023-04-06T21:23:43.741Z,8.36
2023-04-06T21:26:13.705Z,8.30
2023-04-06T21:28:40.832Z,8.27
2023-04-06T21:31:11.033Z,8.36
2023-04-06T21:33:38.340Z,8.37
2023-04-06T21:36:06.788Z,8.39
2023-04-06T21:38:37.640Z,8.48
2023-04-06T21:41:05.362Z,8.47
2023-04-06T21:43:32.470Z,8.53
2023-04-06T21:45:59.666Z,8.54
2023-04-06T21:48:26.817Z,8.63
2023-04-06T21:50:54.269Z,8.63
2023-04-06T21:53:21.412Z,8.66
2023-04-06T21:55:48.906Z,8.68
2023-04-06T21:58:16.093Z,8.66
2023-04-06T22:00:43.285Z,8.67
2023-04-06T22:03:10.500Z,8.61
2023-04-06T22:05:38.404Z,8.68
2023-04-06T22:08:06.394Z,8.64
2023-04-06T22:10:33.520Z,8.64
2023-04-06T22:13:00.596Z,8.68
2023-04-06T22:15:27.714Z,8.64
2023-04-06T22:17:55.028Z,8.68
2023-04-06T22:20:22.271Z,8.79
2023-04-06T22:22:50.155Z,8.80
2023-04-06T22:25:17.265Z,8.73
2023-04-06T22:27:44.403Z,8.85
2023-04-06T22:30:11.803Z,8.82
2023-04-06T22:32:38.939Z,8.83
2023-04-06T22:35:06.974Z,8.82
2023-04-06T22:37:34.138Z,8.84
2023-04-06T22:40:01.611Z,8.86
2023-04-06T22:42:29.001Z,8.83
2023-04-06T22:44:56.119Z,8.84
2023-04-06T22:47:23.375Z,8.86
2023-04-06T22:49:50.653Z,8.85
2023-04-06T22:52:17.806Z,8.87
2023-04-06T22:54:45.255Z,8.84
2023-04-06T22:57:12.282Z,8.86
2023-04-06T22:59:39.420Z,8.91
2023-04-06T23:02:07.338Z,8.89
2023-04-06T23:04:34.588Z,8.83
2023-04-06T23:07:02.531Z,8.77
2023-04-06T23:09:29.556Z,8.82
2023-04-06T23:11:56.595Z,8.70
2023-04-06T23:14:23.807Z,8.81
2023-04-06T23:16:51.172Z,8.81
2023-04-06T23:19:18.322Z,8.80
2023-04-06T23:21:45.774Z,8.89
2023-04-06T23:24:12.952Z,8.77
2023-04-06T23:26:40.390Z,8.72
2023-04-06T23:29:07.482Z,8.71
2023-04-06T23:31:34.598Z,8.71
2023-04-06T23:34:02.648Z,8.70
2023-04-06T23:36:30.007Z,8.72
2023-04-06T23:38:57.526Z,8.68
2023-04-06T23:41:24.611Z,8.70
2023-04-06T23:43:52.051Z,8.63
2023-04-06T23:46:19.161Z,8.65
2023-04-06T23:48:46.288Z,8.65
2023-04-06T23:51:13.663Z,8.63
2023-04-06T23:53:41.298Z,8.58
2023-04-06T23:56:09.249Z,8.60
2023-04-06T23:58:36.618Z,8.62
